Time;durP1;ratioP1;P1;durP2;ratioP2;P2;SDS_P1;SDS_P2;PMS_P1;PMS_P2;Temp;Humidity;BMP_temperature;BMP_pressure;BME280_temperature;BME280_humidity;BME280_pressure;Samples;Min_cycle;Max_cycle;Signal;HPM_P1;HPM_P2
2021/06/02 00:00:01;;;;;;;;;;;22.70;34.10;;;;;;1550942;75;715;-56
2021/06/02 00:02:03;;;;;;;;;;;22.60;34.10;;;;;;1549958;75;1162;-57
2021/06/02 00:04:05;;;;;;;;;;;22.60;33.40;;;;;;1543156;75;732;-56
2021/06/02 00:06:07;;;;;;;;;;;22.60;33.80;;;;;;1548871;75;1925;-55
2021/06/02 00:08:10;;;;;;;;;;;22.70;33.60;;;;;;1552796;75;674;-54
2021/06/02 00:10:13;;;;;;;;;;;22.70;33.50;;;;;;1550661;75;1156;-58
2021/06/02 00:12:14;;;;;;;;;;;22.60;33.30;;;;;;1551630;75;750;-55
2021/06/02 00:14:17;;;;;;;;;;;22.60;33.40;;;;;;1546862;75;781;-54
2021/06/02 00:16:19;;;;;;;;;;;22.60;33.30;;;;;;1552151;75;772;-53
2021/06/02 00:18:21;;;;;;;;;;;22.60;33.40;;;;;;1552245;75;786;-57
2021/06/02 00:20:23;;;;;;;;;;;22.60;33.30;;;;;;1559114;75;1105;-57
2021/06/02 00:22:25;;;;;;;;;;;22.60;33.50;;;;;;1548799;75;760;-58
2021/06/02 00:24:26;;;;;;;;;;;22.60;33.30;;;;;;1541841;75;726;-56
2021/06/02 00:26:29;;;;;;;;;;;22.60;33.20;;;;;;1557317;75;1931;-57
2021/06/02 00:28:31;;;;;;;;;;;22.60;33.40;;;;;;1563433;75;772;-56
2021/06/02 00:30:32;;;;;;;;;;;22.60;33.50;;;;;;1564244;75;1133;-56
2021/06/02 00:32:34;;;;;;;;;;;22.60;33.20;;;;;;1549831;75;706;-56
2021/06/02 00:34:36;;;;;;;;;;;22.60;33.40;;;;;;1533224;75;677;-54
2021/06/02 00:36:42;;;;;;;;;;;22.60;33.20;;;;;;1552994;75;747;-53
2021/06/02 00:38:44;;;;;;;;;;;22.60;33.20;;;;;;1557087;75;766;-56
2021/06/02 00:40:49;;;;;;;;;;;22.70;33.30;;;;;;1565283;75;1141;-55
2021/06/02 00:42:52;;;;;;;;;;;22.70;33.40;;;;;;1534622;75;783;-56
2021/06/02 00:44:54;;;;;;;;;;;22.60;33.20;;;;;;1553657;75;702;-55
2021/06/02 00:46:59;;;;;;;;;;;22.60;32.80;;;;;;1552226;75;1942;-57
2021/06/02 00:49:01;;;;;;;;;;;22.60;32.30;;;;;;1555000;75;705;-58
2021/06/02 00:51:03;;;;;;;;;;;22.60;32.80;;;;;;1550676;75;1152;-55
2021/06/02 00:53:05;;;;;;;;;;;22.60;32.80;;;;;;1552841;75;806;-57
2021/06/02 00:55:07;;;;;;;;;;;22.60;32.70;;;;;;1552259;75;688;-55
2021/06/02 00:57:13;;;;;;;;;;;22.60;32.70;;;;;;1545771;75;704;-55
2021/06/02 00:59:17;;;;;;;;;;;22.60;32.60;;;;;;1548025;75;817;-53
2021/06/02 01:01:19;;;;;;;;;;;22.60;32.70;;;;;;1546101;75;1100;-55
2021/06/02 01:03:22;;;;;;;;;;;22.60;32.50;;;;;;1547348;75;774;-56
2021/06/02 01:05:24;;;;;;;;;;;22.60;32.60;;;;;;1548632;75;1943;-55
2021/06/02 01:07:26;;;;;;;;;;;22.60;32.40;;;;;;1558968;75;719;-55
2021/06/02 01:09:28;;;;;;;;;;;22.60;32.60;;;;;;1549935;75;708;-56
2021/06/02 01:11:30;;;;;;;;;;;22.60;32.50;;;;;;1550657;75;1085;-55
2021/06/02 01:13:34;;;;;;;;;;;22.60;32.60;;;;;;1557779;75;711;-55
2021/06/02 01:15:35;;;;;;;;;;;22.60;32.70;;;;;;1556100;75;747;-55
2021/06/02 01:17:37;;;;;;;;;;;22.50;32.90;;;;;;1552440;75;760;-56
2021/06/02 01:19:39;;;;;;;;;;;22.50;33.10;;;;;;1544377;75;732;-55
2021/06/02 01:21:43;;;;;;;;;;;22.60;33.00;;;;;;1559824;75;1122;-55
2021/06/02 01:23:44;;;;;;;;;;;22.60;33.00;;;;;;1555955;75;1882;-56
2021/06/02 01:25:46;;;;;;;;;;;22.60;33.20;;;;;;1556052;75;1943;-56
2021/06/02 01:27:49;;;;;;;;;;;22.60;33.20;;;;;;1556456;75;749;-53
2021/06/02 01:29:50;;;;;;;;;;;22.60;33.20;;;;;;1566602;75;809;-56
2021/06/02 01:31:57;;;;;;;;;;;22.50;32.90;;;;;;1553548;75;1021;-56
2021/06/02 01:34:05;;;;;;;;;;;22.60;32.80;;;;;;1556851;75;1539;-56
2021/06/02 01:36:13;;;;;;;;;;;22.60;32.60;;;;;;1556855;75;704;-55
2021/06/02 01:38:25;;;;;;;;;;;22.50;32.70;;;;;;1539494;75;753;-53
2021/06/02 01:40:44;;;;;;;;;;;22.50;32.50;;;;;;1555973;75;1123;-55
2021/06/02 01:42:57;;;;;;;;;;;22.50;32.70;;;;;;1564898;75;1796;-55
2021/06/02 01:45:03;;;;;;;;;;;22.50;32.60;;;;;;1555015;75;704;-53
2021/06/02 01:47:19;;;;;;;;;;;22.50;32.70;;;;;;1554196;75;1937;-54
2021/06/02 01:49:38;;;;;;;;;;;22.50;32.60;;;;;;1554850;75;1603;-54
2021/06/02 01:51:56;;;;;;;;;;;22.50;32.70;;;;;;1558642;75;1111;-54
2021/06/02 01:54:02;;;;;;;;;;;22.50;32.60;;;;;;1554655;75;1911;-55
2021/06/02 01:56:09;;;;;;;;;;;22.50;32.70;;;;;;1549610;75;713;-56
2021/06/02 01:58:18;;;;;;;;;;;22.50;32.20;;;;;;1551598;75;652;-56
2021/06/02 02:00:38;;;;;;;;;;;22.50;32.20;;;;;;1548623;75;1204;-54
2021/06/02 02:02:43;;;;;;;;;;;22.50;31.90;;;;;;1556707;75;802;-54
2021/06/02 02:04:46;;;;;;;;;;;22.50;32.60;;;;;;1548229;75;706;-53
2021/06/02 02:06:50;;;;;;;;;;;22.50;32.30;;;;;;1548870;75;1923;-55
2021/06/02 02:09:12;;;;;;;;;;;22.50;32.50;;;;;;1547539;75;1556;-53
2021/06/02 02:11:19;;;;;;;;;;;22.40;32.00;;;;;;1548897;75;1130;-54
2021/06/02 02:13:22;;;;;;;;;;;22.50;32.50;;;;;;1554425;75;753;-53
2021/06/02 02:15:25;;;;;;;;;;;22.50;32.60;;;;;;1552488;75;1138;-55
2021/06/02 02:17:31;;;;;;;;;;;22.50;32.50;;;;;;1550224;75;769;-54
2021/06/02 02:19:51;;;;;;;;;;;22.50;32.30;;;;;;1548714;75;1855;-54
2021/06/02 02:21:57;;;;;;;;;;;22.50;32.20;;;;;;1555888;75;1054;-57
2021/06/02 02:24:07;;;;;;;;;;;22.50;32.20;;;;;;1523429;75;1397;-53
2021/06/02 02:26:16;;;;;;;;;;;22.50;32.20;;;;;;1544877;75;1972;-55
2021/06/02 02:28:22;;;;;;;;;;;22.40;32.20;;;;;;1551406;75;696;-55
2021/06/02 02:30:26;;;;;;;;;;;22.50;32.10;;;;;;1552906;75;1154;-55
2021/06/02 02:32:38;;;;;;;;;;;22.40;32.20;;;;;;1556655;75;1760;-54
2021/06/02 02:34:56;;;;;;;;;;;22.40;32.30;;;;;;1543788;75;745;-54
2021/06/02 02:37:08;;;;;;;;;;;22.40;32.30;;;;;;1552177;75;1032;-52
2021/06/02 02:39:11;;;;;;;;;;;22.40;32.40;;;;;;1560049;75;705;-57
2021/06/02 02:41:22;;;;;;;;;;;22.40;32.50;;;;;;1553009;75;1134;-55
2021/06/02 02:43:43;;;;;;;;;;;22.40;32.70;;;;;;1549233;75;724;-54
2021/06/02 02:45:45;;;;;;;;;;;22.50;32.70;;;;;;1551655;75;862;-55
2021/06/02 02:48:05;;;;;;;;;;;22.40;32.60;;;;;;1550348;75;1932;-54
2021/06/02 02:50:12;;;;;;;;;;;22.40;32.70;;;;;;1555159;75;1158;-56
2021/06/02 02:52:15;;;;;;;;;;;22.40;32.80;;;;;;1598752;72;219432;-67
2021/06/02 02:54:19;;;;;;;;;;;22.40;32.80;;;;;;1611799;72;1924;-66
2021/06/02 02:56:25;;;;;;;;;;;22.40;32.90;;;;;;1600970;72;747;-68
2021/06/02 02:58:45;;;;;;;;;;;22.50;32.80;;;;;;1614256;72;743;-70
2021/06/02 03:00:51;;;;;;;;;;;22.50;32.80;;;;;;1629784;72;1242;-68
2021/06/02 03:02:57;;;;;;;;;;;22.50;33.00;;;;;;1607256;72;716;-68
2021/06/02 03:05:00;;;;;;;;;;;22.50;33.10;;;;;;1610253;72;724;-68
2021/06/02 03:07:02;;;;;;;;;;;22.40;33.00;;;;;;1603996;72;1927;-68
2021/06/02 03:09:24;;;;;;;;;;;22.50;33.20;;;;;;1606239;72;801;-68
2021/06/02 03:11:37;;;;;;;;;;;22.40;33.10;;;;;;1591826;72;1911;-68
2021/06/02 03:13:47;;;;;;;;;;;22.50;33.50;;;;;;1607686;72;810;-67
2021/06/02 03:15:49;;;;;;;;;;;22.40;33.10;;;;;;1605609;72;902;-66
2021/06/02 03:17:57;;;;;;;;;;;22.50;33.40;;;;;;1616761;72;786;-66
2021/06/02 03:20:18;;;;;;;;;;;22.50;33.50;;;;;;1611366;73;1838;-66
2021/06/02 03:22:20;;;;;;;;;;;22.50;33.40;;;;;;1587563;72;1117;-65
2021/06/02 03:24:40;;;;;;;;;;;22.50;33.50;;;;;;1603100;73;795;-66
2021/06/02 03:26:44;;;;;;;;;;;22.50;33.60;;;;;;1595032;72;1945;-64
2021/06/02 03:29:02;;;;;;;;;;;22.50;33.70;;;;;;1596403;72;728;-65
2021/06/02 03:31:06;;;;;;;;;;;22.50;33.80;;;;;;1587868;72;1125;-65
2021/06/02 03:33:09;;;;;;;;;;;22.40;33.80;;;;;;1606671;72;760;-65
2021/06/02 03:35:14;;;;;;;;;;;22.50;33.90;;;;;;1583037;73;1874;-68
2021/06/02 03:37:34;;;;;;;;;;;22.60;34.00;;;;;;1589651;73;790;-65
2021/06/02 03:39:38;;;;;;;;;;;22.50;33.90;;;;;;1597697;72;816;-65
2021/06/02 03:42:00;;;;;;;;;;;22.50;34.00;;;;;;1604182;72;1132;-65
2021/06/02 03:44:03;;;;;;;;;;;22.50;34.00;;;;;;1605827;72;699;-66
2021/06/02 03:46:06;;;;;;;;;;;22.40;34.00;;;;;;1573081;72;1016;-65
2021/06/02 03:48:28;;;;;;;;;;;22.50;34.10;;;;;;1594088;72;611;-65
2021/06/02 03:50:31;;;;;;;;;;;22.50;34.10;;;;;;1595078;73;1156;-67
2021/06/02 03:52:44;;;;;;;;;;;22.50;34.10;;;;;;1601950;72;788;-66
2021/06/02 03:54:50;;;;;;;;;;;22.40;34.00;;;;;;1593821;72;1893;-66
2021/06/02 03:57:10;;;;;;;;;;;22.40;33.70;;;;;;1591120;72;1931;-69
2021/06/02 03:59:30;;;;;;;;;;;22.50;34.10;;;;;;1587442;72;780;-66
2021/06/02 04:01:43;;;;;;;;;;;22.50;34.00;;;;;;1603230;72;1185;-66
2021/06/02 04:03:49;;;;;;;;;;;22.50;34.00;;;;;;1588625;72;1888;-68
2021/06/02 04:05:55;;;;;;;;;;;22.40;34.00;;;;;;1595604;72;1932;-68
2021/06/02 04:08:15;;;;;;;;;;;22.50;34.10;;;;;;1583351;72;1939;-68
2021/06/02 04:10:37;;;;;;;;;;;22.40;33.90;;;;;;1592302;72;815;-67
2021/06/02 04:12:40;;;;;;;;;;;22.40;33.80;;;;;;1597030;72;738;-66
2021/06/02 04:14:43;;;;;;;;;;;22.40;33.70;;;;;;1605903;72;779;-66
2021/06/02 04:16:45;;;;;;;;;;;22.40;33.60;;;;;;1598533;73;760;-66
2021/06/02 04:18:47;;;;;;;;;;;22.50;33.60;;;;;;1598513;73;785;-66
2021/06/02 04:20:49;;;;;;;;;;;22.50;33.80;;;;;;1606591;72;1162;-66
2021/06/02 04:22:51;;;;;;;;;;;22.50;33.60;;;;;;1603570;72;837;-66
2021/06/02 04:24:53;;;;;;;;;;;22.50;33.80;;;;;;1615765;72;787;-65
2021/06/02 04:26:55;;;;;;;;;;;22.50;34.00;;;;;;1597341;73;1931;-65
2021/06/02 04:28:56;;;;;;;;;;;22.50;33.90;;;;;;1604915;72;819;-67
2021/06/02 04:31:00;;;;;;;;;;;22.50;33.90;;;;;;1596747;72;1144;-65
2021/06/02 04:33:02;;;;;;;;;;;22.50;33.90;;;;;;1594073;72;2100;-66
2021/06/02 04:35:04;;;;;;;;;;;22.50;33.80;;;;;;1587909;72;822;-67
2021/06/02 04:37:09;;;;;;;;;;;22.50;33.70;;;;;;1595476;72;714;-67
2021/06/02 04:39:11;;;;;;;;;;;22.50;33.80;;;;;;1592552;72;829;-69
2021/06/02 04:41:13;;;;;;;;;;;22.50;33.80;;;;;;1598337;73;1138;-66
2021/06/02 04:43:15;;;;;;;;;;;22.50;33.50;;;;;;1593466;72;796;-66
2021/06/02 04:45:17;;;;;;;;;;;22.50;33.90;;;;;;1591476;72;817;-66
2021/06/02 04:47:19;;;;;;;;;;;22.50;33.80;;;;;;1598043;73;1941;-67
2021/06/02 04:49:22;;;;;;;;;;;22.50;33.70;;;;;;1592914;73;786;-66
2021/06/02 04:51:26;;;;;;;;;;;22.50;33.80;;;;;;1593477;73;1942;-66
2021/06/02 04:53:29;;;;;;;;;;;22.60;33.90;;;;;;1585418;72;1945;-69
2021/06/02 04:55:42;;;;;;;;;;;22.60;34.00;;;;;;1598102;73;716;-67
2021/06/02 04:58:02;;;;;;;;;;;22.50;34.10;;;;;;1598817;73;1004;-66
2021/06/02 05:00:23;;;;;;;;;;;22.50;34.10;;;;;;1592369;72;720;-65
2021/06/02 05:02:27;;;;;;;;;;;22.50;34.20;;;;;;1591526;72;1117;-66
2021/06/02 05:04:43;;;;;;;;;;;22.50;34.20;;;;;;1591955;73;1467;-67
2021/06/02 05:06:55;;;;;;;;;;;22.50;34.30;;;;;;1587747;72;1907;-66
2021/06/02 05:09:05;;;;;;;;;;;22.50;34.30;;;;;;1584062;72;1868;-67
2021/06/02 05:11:25;;;;;;;;;;;22.50;34.30;;;;;;1579909;72;1147;-66
2021/06/02 05:13:28;;;;;;;;;;;22.50;34.30;;;;;;1588916;73;793;-66
2021/06/02 05:15:38;;;;;;;;;;;22.50;34.30;;;;;;1578054;72;2012;-66
2021/06/02 05:17:41;;;;;;;;;;;22.50;34.20;;;;;;1584289;72;723;-67
2021/06/02 05:22:14;;;;;;;;;;;22.50;34.30;;;;;;1586081;72;1174;-65
2021/06/02 05:24:33;;;;;;;;;;;22.60;34.40;;;;;;1586436;73;1659;-68
2021/06/02 05:26:39;;;;;;;;;;;22.50;34.60;;;;;;1587878;72;919;-69
2021/06/02 05:28:43;;;;;;;;;;;22.60;34.70;;;;;;1588124;72;754;-66
2021/06/02 05:30:52;;;;;;;;;;;22.50;34.70;;;;;;1580028;72;1144;-66
2021/06/02 05:33:02;;;;;;;;;;;22.60;34.70;;;;;;1577073;72;801;-66
2021/06/02 05:35:20;;;;;;;;;;;22.60;34.60;;;;;;1578085;72;1867;-67
2021/06/02 05:37:33;;;;;;;;;;;22.60;34.50;;;;;;1588370;72;632;-66
2021/06/02 05:39:53;;;;;;;;;;;22.60;34.80;;;;;;1585596;73;769;-66
2021/06/02 05:41:56;;;;;;;;;;;22.60;34.80;;;;;;1591670;72;1127;-66
2021/06/02 05:44:11;;;;;;;;;;;22.60;35.10;;;;;;1597543;72;1307;-66
2021/06/02 05:46:33;;;;;;;;;;;22.60;35.40;;;;;;1589997;72;737;-68
2021/06/02 05:48:37;;;;;;;;;;;22.50;35.50;;;;;;1592994;73;2118;-65
2021/06/02 05:50:57;;;;;;;;;;;22.60;35.50;;;;;;1592532;73;1669;-66
2021/06/02 05:53:18;;;;;;;;;;;22.60;35.40;;;;;;1593101;72;1007;-67
2021/06/02 05:55:31;;;;;;;;;;;22.60;35.30;;;;;;1592471;72;746;-66
2021/06/02 05:57:51;;;;;;;;;;;22.60;35.20;;;;;;1585743;72;754;-67
2021/06/02 06:00:07;;;;;;;;;;;22.60;35.30;;;;;;1584649;72;771;-66
2021/06/02 06:02:27;;;;;;;;;;;22.60;35.30;;;;;;1584661;72;1960;-68
2021/06/02 06:04:33;;;;;;;;;;;22.70;35.40;;;;;;1581802;72;788;-67
2021/06/02 06:06:40;;;;;;;;;;;22.60;35.40;;;;;;1590927;72;731;-68
2021/06/02 06:08:58;;;;;;;;;;;22.60;35.40;;;;;;1586487;73;1944;-67
2021/06/02 06:11:05;;;;;;;;;;;22.70;35.50;;;;;;1585042;73;2079;-67
2021/06/02 06:13:17;;;;;;;;;;;22.60;35.40;;;;;;1590776;73;697;-67
2021/06/02 06:15:38;;;;;;;;;;;22.70;35.50;;;;;;1589022;72;1964;-67
2021/06/02 06:17:44;;;;;;;;;;;22.60;35.60;;;;;;1589210;72;740;-67
2021/06/02 06:20:04;;;;;;;;;;;22.60;35.40;;;;;;1584438;72;706;-67
2021/06/02 06:22:07;;;;;;;;;;;22.70;35.10;;;;;;1588437;72;1133;-67
2021/06/02 06:24:17;;;;;;;;;;;22.60;35.00;;;;;;1595606;72;660;-68
2021/06/02 06:26:33;;;;;;;;;;;22.70;35.20;;;;;;1582282;73;1702;-66
2021/06/02 06:28:53;;;;;;;;;;;22.70;34.90;;;;;;1587836;72;1914;-67
2021/06/02 06:30:54;;;;;;;;;;;22.60;34.90;;;;;;1585937;73;1118;-63
2021/06/02 06:32:56;;;;;;;;;;;22.60;34.70;;;;;;1592201;73;788;-66
2021/06/02 06:34:59;;;;;;;;;;;22.60;34.80;;;;;;1589239;72;769;-69
2021/06/02 06:37:01;;;;;;;;;;;22.70;34.80;;;;;;1582070;72;792;-66
2021/06/02 06:39:05;;;;;;;;;;;22.70;34.60;;;;;;1580884;73;693;-66
2021/06/02 06:41:07;;;;;;;;;;;22.70;34.60;;;;;;1579413;73;1140;-66
2021/06/02 06:43:10;;;;;;;;;;;22.70;34.60;;;;;;1589236;73;667;-66
2021/06/02 06:45:15;;;;;;;;;;;22.70;34.60;;;;;;1591884;72;749;-66
2021/06/02 06:47:17;;;;;;;;;;;22.70;34.60;;;;;;1581861;73;2740;-64
2021/06/02 06:49:19;;;;;;;;;;;22.70;34.60;;;;;;1585978;73;772;-66
2021/06/02 06:51:21;;;;;;;;;;;22.70;34.40;;;;;;1593075;73;1155;-63
2021/06/02 06:53:23;;;;;;;;;;;22.70;34.40;;;;;;1582061;73;780;-64
2021/06/02 06:55:24;;;;;;;;;;;22.70;34.60;;;;;;1583050;72;677;-65
2021/06/02 06:57:26;;;;;;;;;;;22.70;34.50;;;;;;1587418;72;776;-65
2021/06/02 06:59:28;;;;;;;;;;;22.80;34.60;;;;;;1592767;72;774;-66
2021/06/02 07:01:30;;;;;;;;;;;22.70;34.50;;;;;;1594279;72;1181;-66
2021/06/02 07:03:32;;;;;;;;;;;22.80;34.70;;;;;;1586521;73;967;-67
2021/06/02 07:05:34;;;;;;;;;;;22.80;34.80;;;;;;1589110;72;754;-69
2021/06/02 07:07:36;;;;;;;;;;;22.70;34.80;;;;;;1579346;73;1935;-68
2021/06/02 07:09:38;;;;;;;;;;;22.80;34.90;;;;;;1579867;73;821;-68
2021/06/02 07:11:41;;;;;;;;;;;22.80;34.80;;;;;;1548093;74;1107;-68
2021/06/02 07:13:43;;;;;;;;;;;22.80;34.80;;;;;;1587711;72;842;-65
2021/06/02 07:15:46;;;;;;;;;;;22.80;34.70;;;;;;1598375;73;751;-66
2021/06/02 07:17:48;;;;;;;;;;;22.80;34.60;;;;;;1595874;72;780;-67
2021/06/02 07:19:51;;;;;;;;;;;22.80;34.70;;;;;;1598215;73;826;-67
2021/06/02 07:21:53;;;;;;;;;;;22.90;34.70;;;;;;1593228;73;1156;-66
2021/06/02 07:23:54;;;;;;;;;;;22.80;35.00;;;;;;1593969;72;818;-65
2021/06/02 07:25:57;;;;;;;;;;;22.70;35.40;;;;;;1585604;72;738;-67
2021/06/02 07:28:00;;;;;;;;;;;22.70;35.60;;;;;;1594873;72;1935;-67
2021/06/02 07:30:04;;;;;;;;;;;22.70;35.70;;;;;;1587294;73;831;-66
2021/06/02 07:32:06;;;;;;;;;;;22.60;36.00;;;;;;1601420;72;1147;-68
2021/06/02 07:34:08;;;;;;;;;;;22.60;36.40;;;;;;1588304;72;766;-69
2021/06/02 07:36:10;;;;;;;;;;;22.60;36.30;;;;;;1598758;72;725;-66
2021/06/02 07:38:11;;;;;;;;;;;22.60;36.40;;;;;;1566513;74;713;-65
2021/06/02 07:40:14;;;;;;;;;;;22.60;36.10;;;;;;1600200;72;909;-65
2021/06/02 07:42:16;;;;;;;;;;;22.70;36.10;;;;;;1592218;72;1148;-63
2021/06/02 07:44:17;;;;;;;;;;;22.70;36.30;;;;;;1607140;72;790;-63
2021/06/02 07:46:19;;;;;;;;;;;22.60;36.30;;;;;;1591664;73;779;-66
2021/06/02 07:48:21;;;;;;;;;;;22.70;36.50;;;;;;1601925;72;1936;-66
2021/06/02 07:50:23;;;;;;;;;;;22.80;36.30;;;;;;1594331;72;808;-67
2021/06/02 07:52:25;;;;;;;;;;;22.80;35.90;;;;;;1590510;73;1074;-65
2021/06/02 07:54:27;;;;;;;;;;;22.90;36.00;;;;;;1595439;72;791;-65
2021/06/02 07:56:29;;;;;;;;;;;22.90;35.70;;;;;;1618377;72;794;-65
2021/06/02 07:58:31;;;;;;;;;;;23.00;35.40;;;;;;1604091;72;829;-63
2021/06/02 08:00:33;;;;;;;;;;;23.10;35.00;;;;;;1599594;73;1195;-65
2021/06/02 08:02:35;;;;;;;;;;;23.20;34.60;;;;;;1601990;72;780;-64
2021/06/02 08:04:37;;;;;;;;;;;23.20;34.50;;;;;;1597329;72;808;-64
2021/06/02 08:06:38;;;;;;;;;;;23.20;34.30;;;;;;1599105;72;792;-66
2021/06/02 08:08:40;;;;;;;;;;;23.20;33.60;;;;;;1589342;73;1940;-64
2021/06/02 08:10:42;;;;;;;;;;;23.30;33.80;;;;;;1599932;72;1227;-64
2021/06/02 08:12:44;;;;;;;;;;;23.20;34.00;;;;;;1591980;72;797;-65
2021/06/02 08:14:46;;;;;;;;;;;23.30;33.80;;;;;;1588845;72;874;-65
2021/06/02 08:16:48;;;;;;;;;;;23.30;33.60;;;;;;1595804;72;740;-65
2021/06/02 08:18:51;;;;;;;;;;;23.30;33.80;;;;;;1597712;72;739;-64
2021/06/02 08:20:53;;;;;;;;;;;23.30;33.70;;;;;;1585600;72;1109;-65
2021/06/02 08:22:55;;;;;;;;;;;23.20;33.90;;;;;;1604036;72;769;-65
2021/06/02 08:24:57;;;;;;;;;;;23.30;33.90;;;;;;1590695;72;766;-63
2021/06/02 08:26:58;;;;;;;;;;;23.30;34.00;;;;;;1580493;73;823;-64
2021/06/02 08:29:00;;;;;;;;;;;23.40;33.80;;;;;;1580541;73;1935;-64
2021/06/02 08:31:02;;;;;;;;;;;23.40;33.40;;;;;;1578370;72;1159;-65
2021/06/02 08:33:04;;;;;;;;;;;23.40;32.70;;;;;;1612070;72;903;-63
2021/06/02 08:35:07;;;;;;;;;;;23.40;33.20;;;;;;1599269;73;742;-63
2021/06/02 08:37:09;;;;;;;;;;;23.40;33.00;;;;;;1594425;73;727;-64
2021/06/02 08:39:10;;;;;;;;;;;23.30;32.40;;;;;;1584858;72;791;-68
2021/06/02 08:41:12;;;;;;;;;;;23.30;32.70;;;;;;1594133;72;1146;-65
2021/06/02 08:43:16;;;;;;;;;;;23.30;32.60;;;;;;1611019;72;782;-66
2021/06/02 08:45:18;;;;;;;;;;;23.30;32.20;;;;;;1599177;72;1883;-64
2021/06/02 08:47:20;;;;;;;;;;;23.40;32.40;;;;;;1581915;73;788;-63
2021/06/02 08:49:22;;;;;;;;;;;23.30;33.10;;;;;;1593137;72;1918;-64
2021/06/02 08:51:24;;;;;;;;;;;23.40;32.90;;;;;;1584627;72;1171;-64
2021/06/02 08:53:26;;;;;;;;;;;23.30;32.80;;;;;;1591334;70;2072;-66
2021/06/02 08:55:28;;;;;;;;;;;23.30;32.60;;;;;;1582263;74;742;-65
2021/06/02 08:57:30;;;;;;;;;;;23.30;32.80;;;;;;1580691;74;766;-65
2021/06/02 08:59:31;;;;;;;;;;;23.30;32.70;;;;;;1582053;74;778;-66
2021/06/02 09:01:34;;;;;;;;;;;23.30;32.70;;;;;;1595749;74;672;-66
2021/06/02 09:03:36;;;;;;;;;;;23.30;32.60;;;;;;1587022;74;1193;-66
2021/06/02 09:05:38;;;;;;;;;;;23.30;32.60;;;;;;1572768;74;681;-71
2021/06/02 09:07:40;;;;;;;;;;;23.40;32.80;;;;;;1585413;74;802;-68
2021/06/02 09:09:42;;;;;;;;;;;23.30;33.10;;;;;;1576253;74;1938;-67
2021/06/02 09:11:48;;;;;;;;;;;23.30;33.00;;;;;;1584375;74;752;-67
2021/06/02 09:13:50;;;;;;;;;;;23.40;33.30;;;;;;1575118;74;1112;-67
2021/06/02 09:15:52;;;;;;;;;;;23.40;33.00;;;;;;1578804;74;782;-68
2021/06/02 09:17:59;;;;;;;;;;;23.40;32.80;;;;;;1591171;74;795;-68
2021/06/02 09:20:01;;;;;;;;;;;23.50;32.60;;;;;;1573912;74;682;-66
2021/06/02 09:22:03;;;;;;;;;;;23.40;32.90;;;;;;1604384;72;1121;-65
2021/06/02 09:24:06;;;;;;;;;;;23.30;33.00;;;;;;1580818;74;675;-69
2021/06/02 09:26:12;;;;;;;;;;;23.30;32.70;;;;;;1577840;74;756;-66
2021/06/02 09:28:14;;;;;;;;;;;23.40;32.30;;;;;;1572195;74;1910;-66
2021/06/02 09:30:17;;;;;;;;;;;23.40;32.00;;;;;;1569072;74;730;-65
2021/06/02 09:32:22;;;;;;;;;;;23.40;32.20;;;;;;1578574;74;1101;-66
2021/06/02 09:34:25;;;;;;;;;;;23.30;32.10;;;;;;1571596;74;696;-66
2021/06/02 09:36:28;;;;;;;;;;;23.30;32.00;;;;;;1590504;74;762;-68
2021/06/02 09:38:29;;;;;;;;;;;23.20;31.60;;;;;;1573848;74;750;-67
2021/06/02 09:40:35;;;;;;;;;;;23.10;31.80;;;;;;1592212;74;767;-69
2021/06/02 09:42:37;;;;;;;;;;;23.20;32.00;;;;;;1581722;74;1140;-66
2021/06/02 09:44:38;;;;;;;;;;;23.20;31.70;;;;;;1541424;75;799;-66
2021/06/02 09:46:59;;;;;;;;;;;23.10;31.10;;;;;;1585009;74;783;-67
2021/06/02 09:49:01;;;;;;;;;;;23.10;31.00;;;;;;1577061;74;1909;-67
2021/06/02 09:51:05;;;;;;;;;;;23.10;31.00;;;;;;1579113;74;1064;-68
2021/06/02 09:53:07;;;;;;;;;;;23.10;31.30;;;;;;1579617;74;1104;-68
2021/06/02 09:55:16;;;;;;;;;;;23.10;31.00;;;;;;1587171;74;619;-67
2021/06/02 09:57:22;;;;;;;;;;;23.00;31.50;;;;;;1569464;74;759;-66
2021/06/02 09:59:22;;;;;;;;;;;23.00;31.60;;;;;;1560326;74;1192;-66
2021/06/02 10:01:24;;;;;;;;;;;23.00;31.60;;;;;;1589625;74;779;-65
2021/06/02 10:03:34;;;;;;;;;;;23.10;31.90;;;;;;1577023;74;1133;-66
2021/06/02 10:05:39;;;;;;;;;;;23.10;31.90;;;;;;1574424;74;1061;-66
2021/06/02 10:07:44;;;;;;;;;;;23.10;31.80;;;;;;1585715;74;757;-65
2021/06/02 10:09:46;;;;;;;;;;;23.10;31.80;;;;;;1589417;74;1892;-66
2021/06/02 10:11:58;;;;;;;;;;;23.00;31.70;;;;;;1583772;74;756;-66
2021/06/02 10:14:01;;;;;;;;;;;23.10;32.00;;;;;;1591384;74;743;-65
2021/06/02 10:16:03;;;;;;;;;;;23.10;31.20;;;;;;1575855;74;788;-66
2021/06/02 10:18:05;;;;;;;;;;;23.00;31.40;;;;;;1565367;74;835;-66
2021/06/02 10:20:10;;;;;;;;;;;23.10;30.90;;;;;;1582470;74;720;-66
2021/06/02 10:22:20;;;;;;;;;;;23.00;31.20;;;;;;1588139;72;1109;-67
2021/06/02 10:24:22;;;;;;;;;;;22.90;29.60;;;;;;1586471;74;1059;-66
2021/06/02 10:26:23;;;;;;;;;;;23.00;29.20;;;;;;1578228;74;811;-66
2021/06/02 10:28:26;;;;;;;;;;;23.00;29.60;;;;;;1575572;74;1921;-66
2021/06/02 10:30:28;;;;;;;;;;;22.80;29.60;;;;;;1568217;74;718;-66
2021/06/02 10:32:29;;;;;;;;;;;22.90;29.20;;;;;;1585910;74;1128;-66
2021/06/02 10:34:31;;;;;;;;;;;22.90;28.50;;;;;;1591809;74;748;-68
2021/06/02 10:36:33;;;;;;;;;;;22.80;28.20;;;;;;1572315;74;779;-67
2021/06/02 10:38:37;;;;;;;;;;;22.90;28.70;;;;;;1587932;74;742;-68
2021/06/02 10:40:38;;;;;;;;;;;22.90;28.80;;;;;;1579330;74;1054;-66
2021/06/02 10:42:42;;;;;;;;;;;22.90;28.10;;;;;;1569081;74;1160;-66
2021/06/02 10:44:46;;;;;;;;;;;22.80;28.20;;;;;;1586890;74;1900;-67
2021/06/02 10:46:48;;;;;;;;;;;22.80;27.40;;;;;;1578664;73;764;-68
2021/06/02 10:48:51;;;;;;;;;;;22.80;27.50;;;;;;1569308;74;1932;-68
2021/06/02 10:50:53;;;;;;;;;;;22.80;26.60;;;;;;1589151;74;1055;-67
2021/06/02 10:52:55;;;;;;;;;;;22.80;26.40;;;;;;1590894;74;1143;-67
2021/06/02 10:54:57;;;;;;;;;;;22.80;26.90;;;;;;1578242;74;832;-67
2021/06/02 10:57:00;;;;;;;;;;;22.80;27.40;;;;;;1591652;74;783;-67
2021/06/02 10:59:27;;;;;;;;;;;22.70;28.10;;;;;;1597504;72;644;-57
2021/06/02 11:01:30;;;;;;;;;;;22.80;28.00;;;;;;1590762;73;1230;-58
2021/06/02 11:03:32;;;;;;;;;;;22.70;28.40;;;;;;1598985;73;847;-57
2021/06/02 11:05:34;;;;;;;;;;;22.70;28.70;;;;;;1599702;73;748;-58
2021/06/02 11:07:38;;;;;;;;;;;22.80;28.40;;;;;;1581782;74;768;-58
2021/06/02 11:09:44;;;;;;;;;;;22.80;28.20;;;;;;1558693;74;1296;-57
2021/06/02 11:11:46;;;;;;;;;;;22.70;28.70;;;;;;1566442;73;1211;-56
2021/06/02 11:14:06;;;;;;;;;;;22.80;28.60;;;;;;1589013;73;771;-58
2021/06/02 11:16:08;;;;;;;;;;;22.80;28.60;;;;;;1601642;73;668;-56
2021/06/02 11:18:12;;;;;;;;;;;22.80;28.00;;;;;;1561435;75;1951;-58
2021/06/02 11:20:14;;;;;;;;;;;22.70;28.60;;;;;;1588848;73;1097;-57
2021/06/02 11:22:17;;;;;;;;;;;22.70;29.30;;;;;;1582266;73;771;-57
2021/06/02 11:24:40;;;;;;;;;;;22.70;28.60;;;;;;1600064;73;802;-58
2021/06/02 11:26:39;;;;;;;;;;;22.60;29.30;;;;;;1581028;73;1583;-58
2021/06/02 11:28:41;;;;;;;;;;;22.60;29.70;;;;;;1594575;73;756;-58
2021/06/02 11:30:43;;;;;;;;;;;22.70;29.70;;;;;;1588356;73;1140;-57
2021/06/02 11:32:48;;;;;;;;;;;22.70;29.70;;;;;;1593338;73;762;-58
2021/06/02 11:34:51;;;;;;;;;;;22.70;29.50;;;;;;1586905;73;895;-54
2021/06/02 11:37:00;;;;;;;;;;;22.60;28.80;;;;;;1583798;73;727;-58
2021/06/02 11:39:02;;;;;;;;;;;22.60;29.10;;;;;;1588792;73;1901;-58
2021/06/02 11:41:04;;;;;;;;;;;22.60;29.40;;;;;;1589362;73;1164;-58
2021/06/02 11:43:06;;;;;;;;;;;22.60;29.60;;;;;;1588739;73;808;-58
2021/06/02 11:45:12;;;;;;;;;;;22.60;29.60;;;;;;1588760;73;726;-58
2021/06/02 11:47:14;;;;;;;;;;;22.60;29.50;;;;;;1589969;73;791;-57
2021/06/02 11:49:29;;;;;;;;;;;22.70;29.50;;;;;;1584753;73;719;-56
2021/06/02 11:51:31;;;;;;;;;;;22.70;29.70;;;;;;1585286;73;1132;-58
2021/06/02 11:53:40;;;;;;;;;;;22.70;29.60;;;;;;1598402;73;788;-58
2021/06/02 11:55:42;;;;;;;;;;;22.60;29.80;;;;;;1608122;73;747;-58
2021/06/02 11:57:44;;;;;;;;;;;22.60;29.80;;;;;;1587980;73;1931;-59
2021/06/02 11:59:46;;;;;;;;;;;22.70;29.70;;;;;;1591620;74;709;-59
2021/06/02 12:01:48;;;;;;;;;;;22.70;30.20;;;;;;1583458;74;1129;-56
2021/06/02 12:03:53;;;;;;;;;;;22.60;29.20;;;;;;1608284;74;763;-58
2021/06/02 12:05:55;;;;;;;;;;;22.60;29.80;;;;;;1607395;74;634;-58
2021/06/02 12:07:59;;;;;;;;;;;22.60;29.70;;;;;;1597342;74;716;-58
2021/06/02 12:10:01;;;;;;;;;;;22.70;29.90;;;;;;1597701;74;905;-55
2021/06/02 12:12:03;;;;;;;;;;;22.60;29.90;;;;;;1590188;74;1171;-54
2021/06/02 12:14:05;;;;;;;;;;;22.60;29.70;;;;;;1607346;74;776;-55
2021/06/02 12:16:12;;;;;;;;;;;22.60;29.60;;;;;;1593699;74;686;-58
2021/06/02 12:18:13;;;;;;;;;;;22.70;29.60;;;;;;1596275;73;1930;-58
2021/06/02 12:20:16;;;;;;;;;;;22.80;29.70;;;;;;1581745;74;1146;-55
2021/06/02 12:22:18;;;;;;;;;;;22.80;29.50;;;;;;1595740;74;834;-59
2021/06/02 12:24:25;;;;;;;;;;;22.70;29.90;;;;;;1591554;74;821;-59
2021/06/02 12:26:28;;;;;;;;;;;22.80;29.70;;;;;;1591911;74;1384;-57
2021/06/02 12:28:30;;;;;;;;;;;22.70;29.60;;;;;;1587398;74;648;-55
2021/06/02 12:30:37;;;;;;;;;;;22.80;29.70;;;;;;1599670;74;1142;-58